createdAt,value
2023-03-27T00:01:26.218Z,80.10
2023-03-27T00:03:53.620Z,80.10
2023-03-27T00:06:21.950Z,80.00
2023-03-27T00:08:51.346Z,80.10
2023-03-27T00:11:19.506Z,80.00
2023-03-27T00:13:49.588Z,80.20
2023-03-27T00:16:20.192Z,80.30
2023-03-27T00:18:47.288Z,80.30
2023-03-27T00:21:14.371Z,80.40
2023-03-27T00:23:42.442Z,80.50
2023-03-27T00:26:09.446Z,80.30
2023-03-27T00:28:36.395Z,80.40
2023-03-27T00:31:03.539Z,80.30
2023-03-27T00:33:30.362Z,80.50
2023-03-27T00:35:57.246Z,80.60
2023-03-27T00:38:24.490Z,80.60
2023-03-27T00:40:54.740Z,80.70
2023-03-27T00:43:33.951Z,80.80
2023-03-27T00:46:31.488Z,80.80
2023-03-27T00:49:03.653Z,80.90
2023-03-27T00:51:32.095Z,81.20
2023-03-27T00:54:00.114Z,81.20
2023-03-27T00:56:27.104Z,81.20
2023-03-27T00:59:00.793Z,81.30
2023-03-27T01:01:30.200Z,81.30
2023-03-27T01:04:01.603Z,81.50
2023-03-27T01:06:30.017Z,81.50
2023-03-27T01:08:57.201Z,81.70
2023-03-27T01:11:50.306Z,82.00
2023-03-27T01:14:46.826Z,82.10
2023-03-27T01:17:25.710Z,82.20
2023-03-27T01:20:18.041Z,82.40
2023-03-27T01:23:35.624Z,82.60
2023-03-27T01:26:35.709Z,82.80
2023-03-27T01:29:30.059Z,83.00
2023-03-27T01:32:23.159Z,83.20
2023-03-27T01:35:26.353Z,83.60
2023-03-27T01:37:56.501Z,83.70
2023-03-27T01:40:53.404Z,83.90
2023-03-27T01:43:36.621Z,84.10
2023-03-27T01:46:41.863Z,84.30
2023-03-27T01:49:12.722Z,84.60
2023-03-27T01:51:44.472Z,84.80
2023-03-27T01:54:34.530Z,85.00
2023-03-27T01:57:08.533Z,85.00
2023-03-27T01:59:39.955Z,85.30
2023-03-27T02:02:14.880Z,85.20
2023-03-27T02:04:49.177Z,85.30
2023-03-27T02:07:23.071Z,85.40
2023-03-27T02:09:58.807Z,85.50
2023-03-27T02:12:37.996Z,85.50
2023-03-27T02:15:23.706Z,85.60
2023-03-27T02:18:05.121Z,85.70
2023-03-27T02:20:33.976Z,85.70
2023-03-27T02:23:01.043Z,85.90
2023-03-27T02:25:36.265Z,86.10
2023-03-27T02:28:28.017Z,86.20
2023-03-27T02:31:37.287Z,86.10
2023-03-27T02:34:22.545Z,86.10
2023-03-27T02:36:55.467Z,86.30
2023-03-27T02:39:52.386Z,86.20
2023-03-27T02:42:44.213Z,86.40
2023-03-27T02:45:36.449Z,86.40
2023-03-27T02:48:13.763Z,86.30
2023-03-27T02:50:53.809Z,86.20
2023-03-27T02:53:25.996Z,86.30
2023-03-27T02:55:55.144Z,86.50
2023-03-27T02:58:45.156Z,86.30
2023-03-27T03:01:13.751Z,86.40
2023-03-27T03:03:53.890Z,86.50
2023-03-27T03:06:29.589Z,86.30
2023-03-27T03:09:06.136Z,86.20
2023-03-27T03:11:39.502Z,85.80
2023-03-27T03:14:06.312Z,86.00
2023-03-27T03:16:33.414Z,86.10
2023-03-27T03:19:00.268Z,86.30
2023-03-27T03:21:26.972Z,86.30
2023-03-27T03:23:57.851Z,86.30
2023-03-27T03:26:27.055Z,86.30
2023-03-27T03:29:00.585Z,86.50
2023-03-27T03:31:28.437Z,86.40
2023-03-27T03:33:55.347Z,86.50
2023-03-27T03:36:22.141Z,86.60
2023-03-27T03:38:48.977Z,86.60
2023-03-27T03:41:16.295Z,86.60
2023-03-27T03:43:43.124Z,86.60
2023-03-27T03:46:09.885Z,86.90
2023-03-27T03:48:36.774Z,86.80
2023-03-27T03:51:03.700Z,86.90
2023-03-27T03:53:30.462Z,87.10
2023-03-27T03:55:57.630Z,87.10
2023-03-27T03:58:34.341Z,87.30
2023-03-27T04:01:02.902Z,87.20
2023-03-27T04:03:32.398Z,87.00
2023-03-27T04:06:05.295Z,86.90
2023-03-27T04:08:36.718Z,86.90
2023-03-27T04:11:11.602Z,87.10
2023-03-27T04:13:38.378Z,87.20
2023-03-27T04:16:05.540Z,87.10
2023-03-27T04:18:33.072Z,87.30
2023-03-27T04:21:00.115Z,87.30
2023-03-27T04:23:33.836Z,87.40
2023-03-27T04:26:02.163Z,87.60
2023-03-27T04:28:34.673Z,87.70
2023-03-27T04:31:15.864Z,87.70
2023-03-27T04:33:46.433Z,87.80
2023-03-27T04:36:17.292Z,87.80
2023-03-27T04:38:44.289Z,88.00
2023-03-27T04:41:18.261Z,88.10
2023-03-27T04:43:46.065Z,88.40
2023-03-27T04:46:13.001Z,88.30
2023-03-27T04:48:39.834Z,88.40
2023-03-27T04:51:09.549Z,88.50
2023-03-27T04:53:37.920Z,88.60
2023-03-27T04:56:06.002Z,88.70
2023-03-27T04:58:35.269Z,88.80
2023-03-27T05:01:05.700Z,88.80
2023-03-27T05:03:34.852Z,88.60
2023-03-27T05:06:03.990Z,88.70
2023-03-27T05:08:31.107Z,89.10
2023-03-27T05:10:58.055Z,89.80
2023-03-27T05:13:25.005Z,90.00
2023-03-27T05:15:51.885Z,90.30
2023-03-27T05:18:19.071Z,90.60
2023-03-27T05:20:48.913Z,90.60
2023-03-27T05:23:16.535Z,90.80
2023-03-27T05:26:00.074Z,90.90
2023-03-27T05:28:28.074Z,91.00
2023-03-27T05:30:57.169Z,91.10
2023-03-27T05:33:24.187Z,91.10
2023-03-27T05:35:52.583Z,91.20
2023-03-27T05:38:19.987Z,91.20
2023-03-27T05:40:46.867Z,91.20
2023-03-27T05:43:13.645Z,91.10
2023-03-27T05:45:40.686Z,91.00
2023-03-27T05:48:07.784Z,91.00
2023-03-27T05:50:35.349Z,91.00
2023-03-27T05:53:05.491Z,91.00
2023-03-27T05:55:32.612Z,91.10
2023-03-27T05:57:59.506Z,91.10
2023-03-27T06:00:27.455Z,91.20
2023-03-27T06:02:59.304Z,91.20
2023-03-27T06:05:29.945Z,91.20
2023-03-27T06:07:59.108Z,91.20
2023-03-27T06:10:30.448Z,91.20
2023-03-27T06:13:01.509Z,91.00
2023-03-27T06:15:28.711Z,91.00
2023-03-27T06:17:56.030Z,90.60
2023-03-27T06:20:24.933Z,90.80
2023-03-27T06:22:55.651Z,90.70
2023-03-27T06:25:25.060Z,90.60
2023-03-27T06:27:53.424Z,90.50
2023-03-27T06:30:23.010Z,90.30
2023-03-27T06:32:52.413Z,90.30
2023-03-27T06:35:20.767Z,90.30
2023-03-27T06:37:51.264Z,90.30
2023-03-27T06:40:22.853Z,90.10
2023-03-27T06:42:56.439Z,90.00
2023-03-27T06:45:25.122Z,89.40
2023-03-27T06:47:55.378Z,88.40
2023-03-27T06:50:25.223Z,88.30
2023-03-27T06:52:52.659Z,88.40
2023-03-27T06:55:23.262Z,88.10
2023-03-27T06:57:52.636Z,88.30
2023-03-27T07:00:24.162Z,88.60
2023-03-27T07:02:54.623Z,88.40
2023-03-27T07:05:22.605Z,88.60
2023-03-27T07:07:50.394Z,88.60
2023-03-27T07:10:20.868Z,88.10
2023-03-27T07:12:53.667Z,88.50
2023-03-27T07:15:22.420Z,89.20
2023-03-27T07:18:06.346Z,89.50
2023-03-27T07:20:34.969Z,90.00
2023-03-27T07:23:02.240Z,89.80
2023-03-27T07:25:37.387Z,90.00
2023-03-27T07:28:06.441Z,90.20
2023-03-27T07:30:34.248Z,89.80
2023-03-27T07:33:01.795Z,89.10
2023-03-27T07:35:31.824Z,89.10
2023-03-27T07:37:58.903Z,89.20
2023-03-27T07:40:38.833Z,89.20
2023-03-27T07:43:09.092Z,89.30
2023-03-27T07:45:51.293Z,88.90
2023-03-27T07:48:21.344Z,89.10
2023-03-27T07:51:10.742Z,88.30
2023-03-27T07:53:41.590Z,87.40
2023-03-27T07:56:15.734Z,87.80
2023-03-27T07:58:49.503Z,87.60
2023-03-27T08:01:22.122Z,87.70
2023-03-27T08:03:49.618Z,88.20
2023-03-27T08:06:21.709Z,87.20
2023-03-27T08:08:50.810Z,87.80
2023-03-27T08:11:29.623Z,86.60
2023-03-27T08:13:58.436Z,85.90
2023-03-27T08:16:29.208Z,85.90
2023-03-27T08:18:57.589Z,86.00
2023-03-27T08:21:34.202Z,86.10
2023-03-27T08:24:04.683Z,85.70
2023-03-27T08:26:32.194Z,85.30
2023-03-27T08:28:59.692Z,85.10
2023-03-27T08:31:30.494Z,85.20
2023-03-27T08:33:57.705Z,86.00
2023-03-27T08:36:24.699Z,85.60
2023-03-27T08:38:51.508Z,85.60
2023-03-27T08:41:38.993Z,85.00
2023-03-27T08:44:12.951Z,84.80
2023-03-27T08:46:59.931Z,84.50
2023-03-27T08:49:31.275Z,84.80
2023-03-27T08:52:05.381Z,84.30
2023-03-27T08:54:33.550Z,83.60
2023-03-27T08:57:01.106Z,83.00
2023-03-27T08:59:31.742Z,83.10
2023-03-27T09:02:51.492Z,82.20
2023-03-27T09:05:40.573Z,82.30
2023-03-27T09:08:54.492Z,82.50
2023-03-27T09:11:54.922Z,82.70
2023-03-27T09:14:27.205Z,81.90
2023-03-27T09:16:57.149Z,81.60
2023-03-27T09:19:49.327Z,82.00
2023-03-27T09:22:22.422Z,81.60
2023-03-27T09:24:54.926Z,81.80
2023-03-27T09:27:27.200Z,82.90
2023-03-27T09:30:21.538Z,82.30
2023-03-27T09:32:51.590Z,82.20
2023-03-27T09:35:20.462Z,82.70
2023-03-27T09:37:49.399Z,82.20
2023-03-27T09:40:25.434Z,82.70
2023-03-27T09:42:54.632Z,83.00
2023-03-27T09:45:22.220Z,82.40
2023-03-27T09:47:59.833Z,82.50
2023-03-27T09:50:41.356Z,82.30
2023-03-27T09:53:18.229Z,81.70
2023-03-27T09:56:01.726Z,80.40
2023-03-27T09:58:32.928Z,81.10
2023-03-27T10:01:14.487Z,82.90
2023-03-27T10:03:49.230Z,81.50
2023-03-27T10:06:29.458Z,83.20
2023-03-27T10:09:07.236Z,86.30
2023-03-27T10:11:35.849Z,87.00
2023-03-27T10:14:15.529Z,88.20
2023-03-27T10:16:48.147Z,89.50
2023-03-27T10:19:27.766Z,90.00
2023-03-27T10:21:56.539Z,89.90
2023-03-27T10:24:33.736Z,89.90
2023-03-27T10:27:12.219Z,89.50
2023-03-27T10:29:41.079Z,87.00
2023-03-27T10:32:08.306Z,87.90
2023-03-27T10:34:37.599Z,86.70
2023-03-27T10:37:20.624Z,85.90
2023-03-27T10:39:47.930Z,85.00
2023-03-27T10:42:16.347Z,86.40
2023-03-27T10:44:49.134Z,86.70
2023-03-27T10:47:23.640Z,88.20
2023-03-27T10:49:53.794Z,88.80
2023-03-27T10:52:31.167Z,89.70
2023-03-27T10:55:12.839Z,89.80
2023-03-27T10:57:42.029Z,90.00
2023-03-27T11:00:32.787Z,90.00
2023-03-27T11:03:23.674Z,90.70
2023-03-27T11:05:53.749Z,90.80
2023-03-27T11:08:41.703Z,90.70
2023-03-27T11:11:23.119Z,90.20
2023-03-27T11:13:49.923Z,88.90
2023-03-27T11:16:35.781Z,89.10
2023-03-27T11:19:11.645Z,89.70
2023-03-27T11:21:52.630Z,88.20
2023-03-27T11:24:40.839Z,86.90
2023-03-27T11:27:28.034Z,88.50
2023-03-27T11:30:16.272Z,87.00
2023-03-27T11:33:01.770Z,87.70
2023-03-27T11:35:35.175Z,86.00
2023-03-27T11:38:08.142Z,86.60
2023-03-27T11:40:45.954Z,83.90
2023-03-27T11:43:14.818Z,84.80
2023-03-27T11:46:02.936Z,83.20
2023-03-27T11:49:01.032Z,82.80
2023-03-27T11:51:33.645Z,83.10
2023-03-27T11:54:00.253Z,82.40
2023-03-27T11:56:33.929Z,84.00
2023-03-27T11:59:18.972Z,86.90
2023-03-27T12:02:18.870Z,88.90
2023-03-27T12:05:10.583Z,90.50
2023-03-27T12:07:52.746Z,90.50
2023-03-27T12:10:36.145Z,91.10
2023-03-27T12:13:42.351Z,91.70
2023-03-27T12:16:45.120Z,92.20
2023-03-27T12:19:49.655Z,92.40
2023-03-27T12:22:57.092Z,93.00
2023-03-27T12:25:23.778Z,94.10
2023-03-27T12:28:04.265Z,94.50
2023-03-27T12:30:42.681Z,94.20
2023-03-27T12:33:16.466Z,94.30
2023-03-27T12:35:47.391Z,94.30
2023-03-27T12:38:23.536Z,94.20
2023-03-27T12:41:11.101Z,94.30
2023-03-27T12:43:41.064Z,95.10
2023-03-27T12:46:11.409Z,96.10
2023-03-27T12:49:00.790Z,95.60
2023-03-27T12:51:38.128Z,94.80
2023-03-27T12:54:25.715Z,94.80
2023-03-27T12:57:05.990Z,95.40
2023-03-27T12:59:50.797Z,97.60
2023-03-27T13:02:34.719Z,96.70
2023-03-27T13:05:24.492Z,96.00
2023-03-27T13:08:28.160Z,93.60
2023-03-27T13:11:01.390Z,93.90
2023-03-27T13:14:01.429Z,92.20
2023-03-27T13:16:55.734Z,91.10
2023-03-27T13:19:45.798Z,91.00
2023-03-27T13:22:18.390Z,90.20
2023-03-27T13:25:00.443Z,90.20
2023-03-27T13:27:32.886Z,87.90
2023-03-27T13:29:59.688Z,87.40
2023-03-27T13:32:41.092Z,87.90
2023-03-27T13:35:47.338Z,87.10
2023-03-27T13:38:15.387Z,86.60
2023-03-27T13:40:44.839Z,87.20
2023-03-27T13:43:33.717Z,88.70
2023-03-27T13:46:06.014Z,90.70
2023-03-27T13:48:38.691Z,91.80
2023-03-27T13:51:33.027Z,92.90
2023-03-27T13:54:40.447Z,93.10
2023-03-27T13:57:25.454Z,93.00
2023-03-27T14:00:18.155Z,92.80
2023-03-27T14:02:57.017Z,93.10
2023-03-27T14:06:05.542Z,94.10
2023-03-27T14:08:36.135Z,94.40
2023-03-27T14:11:47.388Z,94.00
2023-03-27T14:14:23.171Z,94.10
2023-03-27T14:17:01.002Z,92.00
2023-03-27T14:20:07.790Z,92.70
2023-03-27T14:22:53.572Z,91.50
2023-03-27T14:25:39.312Z,91.50
2023-03-27T14:28:10.309Z,90.90
2023-03-27T14:30:45.507Z,90.70
2023-03-27T14:33:20.096Z,90.40
2023-03-27T14:35:54.699Z,88.80
2023-03-27T14:38:24.903Z,89.70
2023-03-27T14:40:56.366Z,90.20
2023-03-27T14:43:25.942Z,90.20
2023-03-27T14:45:56.203Z,90.20
2023-03-27T14:48:33.556Z,90.30
2023-03-27T14:51:05.963Z,90.60
2023-03-27T14:53:36.455Z,90.80
2023-03-27T14:56:12.846Z,90.90
2023-03-27T14:58:46.575Z,90.80
2023-03-27T15:01:17.190Z,90.90
2023-03-27T15:03:49.053Z,91.00
2023-03-27T15:06:25.809Z,90.80
2023-03-27T15:09:05.602Z,90.70
2023-03-27T15:11:41.109Z,89.30
2023-03-27T15:14:18.531Z,89.70
2023-03-27T15:16:58.080Z,88.80
2023-03-27T15:19:29.176Z,89.10
2023-03-27T15:22:03.906Z,90.10
2023-03-27T15:24:45.772Z,89.60
2023-03-27T15:27:35.481Z,89.60
2023-03-27T15:30:28.318Z,89.90
2023-03-27T15:33:01.770Z,88.50
2023-03-27T15:35:51.830Z,89.10
2023-03-27T15:38:25.955Z,87.80
2023-03-27T15:41:01.267Z,86.70
2023-03-27T15:43:29.826Z,87.00
2023-03-27T15:46:15.038Z,86.90
2023-03-27T15:48:45.602Z,86.80
2023-03-27T15:51:18.156Z,86.30
2023-03-27T15:53:49.618Z,84.60
2023-03-27T15:56:25.169Z,84.50
2023-03-27T15:58:57.538Z,84.70
2023-03-27T16:01:44.163Z,84.30
2023-03-27T16:04:15.512Z,84.10
2023-03-27T16:06:48.560Z,83.50
2023-03-27T16:09:28.688Z,82.30
2023-03-27T16:11:57.609Z,83.00
2023-03-27T16:14:31.822Z,82.70
2023-03-27T16:17:15.368Z,80.10
2023-03-27T16:19:55.613Z,80.30
2023-03-27T16:22:24.701Z,81.60
2023-03-27T16:24:52.191Z,80.30
2023-03-27T16:27:22.918Z,78.20
2023-03-27T16:29:53.323Z,78.30
2023-03-27T16:32:22.334Z,78.60
2023-03-27T16:34:51.612Z,77.00
2023-03-27T16:37:21.458Z,78.60
2023-03-27T16:39:48.331Z,79.30
2023-03-27T16:42:17.592Z,80.20
2023-03-27T16:44:45.551Z,79.30
2023-03-27T16:47:13.955Z,79.20
2023-03-27T16:49:40.937Z,79.30
2023-03-27T16:52:07.954Z,80.30
2023-03-27T16:54:34.993Z,79.40
2023-03-27T16:57:02.129Z,80.60
2023-03-27T16:59:29.257Z,80.30
2023-03-27T17:01:56.418Z,81.40
2023-03-27T17:04:23.249Z,82.20
2023-03-27T17:06:50.750Z,81.70
2023-03-27T17:09:18.242Z,81.50
2023-03-27T17:11:44.990Z,81.90
2023-03-27T17:14:12.070Z,80.90
2023-03-27T17:16:39.775Z,81.60
2023-03-27T17:19:07.066Z,82.10
2023-03-27T17:21:33.915Z,81.80
2023-03-27T17:24:01.064Z,81.60
2023-03-27T17:26:35.627Z,81.00
2023-03-27T17:29:05.231Z,81.80
2023-03-27T17:31:34.266Z,81.20
2023-03-27T17:34:08.307Z,81.50
2023-03-27T17:36:44.869Z,81.40
2023-03-27T17:39:16.566Z,80.70
2023-03-27T17:41:43.328Z,80.40
2023-03-27T17:44:11.865Z,80.70
2023-03-27T17:46:38.887Z,80.50
2023-03-27T17:49:05.814Z,79.80
2023-03-27T17:51:34.217Z,79.60
2023-03-27T17:54:01.614Z,80.30
2023-03-27T17:56:28.449Z,80.60
2023-03-27T17:58:56.033Z,81.80
2023-03-27T18:01:24.574Z,82.60
2023-03-27T18:03:51.796Z,83.10
2023-03-27T18:06:18.892Z,83.70
2023-03-27T18:08:46.508Z,84.00
2023-03-27T18:11:15.859Z,84.30
2023-03-27T18:13:43.232Z,84.40
2023-03-27T18:16:10.845Z,84.50
2023-03-27T18:18:40.464Z,84.70
2023-03-27T18:21:07.425Z,84.60
2023-03-27T18:23:35.098Z,84.90
2023-03-27T18:26:06.613Z,85.20
2023-03-27T18:28:34.296Z,85.50
2023-03-27T18:31:08.288Z,85.60
2023-03-27T18:33:35.368Z,86.10
2023-03-27T18:36:03.034Z,86.20
2023-03-27T18:38:30.121Z,86.50
2023-03-27T18:40:57.839Z,86.50
2023-03-27T18:43:25.038Z,86.90
2023-03-27T18:46:00.264Z,86.80
2023-03-27T18:48:28.045Z,87.10
2023-03-27T18:51:00.647Z,87.20
2023-03-27T18:53:27.628Z,87.60
2023-03-27T18:55:55.315Z,87.00
2023-03-27T18:58:26.702Z,87.10
2023-03-27T19:00:54.690Z,87.10
2023-03-27T19:03:23.801Z,87.40
2023-03-27T19:06:01.688Z,87.80
2023-03-27T19:08:28.470Z,87.80
2023-03-27T19:10:57.243Z,88.00
2023-03-27T19:13:26.056Z,88.30
2023-03-27T19:15:52.789Z,88.50
2023-03-27T19:18:19.653Z,88.70
2023-03-27T19:20:46.631Z,89.00
2023-03-27T19:23:21.962Z,89.20
2023-03-27T19:25:49.448Z,89.20
2023-03-27T19:32:03.988Z,90.00
2023-03-27T19:34:41.969Z,90.00
2023-03-27T19:37:11.248Z,90.00
2023-03-27T19:39:39.178Z,90.10
2023-03-27T19:42:06.100Z,90.10
2023-03-27T19:44:33.271Z,90.10
2023-03-27T19:47:02.623Z,90.20
2023-03-27T19:49:29.651Z,90.20
2023-03-27T19:51:56.569Z,90.30
2023-03-27T19:54:23.370Z,90.40
2023-03-27T19:56:50.234Z,90.50
2023-03-27T19:59:29.931Z,90.80
2023-03-27T20:01:57.544Z,91.00
2023-03-27T20:04:24.456Z,90.90
2023-03-27T20:06:51.443Z,91.00
2023-03-27T20:09:19.113Z,91.20
2023-03-27T20:11:47.179Z,91.20
2023-03-27T20:14:14.160Z,91.10
2023-03-27T20:16:41.120Z,90.90
2023-03-27T20:19:09.342Z,91.00
2023-03-27T20:21:40.588Z,91.10
2023-03-27T20:24:10.123Z,91.30
2023-03-27T20:26:39.694Z,91.30
2023-03-27T20:29:12.897Z,91.20
2023-03-27T20:31:40.423Z,91.10
2023-03-27T20:34:09.355Z,91.10
2023-03-27T20:36:39.087Z,91.20
2023-03-27T20:39:07.922Z,91.30
2023-03-27T20:41:39.076Z,91.50
2023-03-27T20:44:17.794Z,91.50
2023-03-27T20:46:47.729Z,90.90
2023-03-27T20:49:40.032Z,90.40
2023-03-27T20:52:10.089Z,90.40
2023-03-27T20:54:37.607Z,90.00
2023-03-27T20:57:05.541Z,90.10
2023-03-27T20:59:34.106Z,89.90
2023-03-27T21:02:01.593Z,89.70
2023-03-27T21:04:31.495Z,89.50
2023-03-27T21:06:58.979Z,89.30
2023-03-27T21:09:27.303Z,89.10
2023-03-27T21:11:55.396Z,88.60
2023-03-27T21:14:22.872Z,88.70
2023-03-27T21:16:49.952Z,88.40
2023-03-27T21:19:17.175Z,88.00
2023-03-27T21:21:44.687Z,87.90
2023-03-27T21:24:11.585Z,87.90
2023-03-27T21:26:38.506Z,88.00
2023-03-27T21:29:05.924Z,88.10
2023-03-27T21:31:32.815Z,88.40
2023-03-27T21:33:59.763Z,88.50
2023-03-27T21:36:29.246Z,89.00
2023-03-27T21:38:57.057Z,89.60
2023-03-27T21:41:24.999Z,90.10
2023-03-27T21:43:52.597Z,90.10
2023-03-27T21:46:19.723Z,90.20
2023-03-27T21:48:51.526Z,90.40
2023-03-27T21:51:19.545Z,90.50
2023-03-27T21:53:46.523Z,90.60
2023-03-27T21:56:13.364Z,90.60
2023-03-27T21:58:40.599Z,90.80
2023-03-27T22:01:07.868Z,90.70
2023-03-27T22:03:34.968Z,90.70
2023-03-27T22:08:38.108Z,91.00
2023-03-27T22:11:05.671Z,91.00
2023-03-27T22:13:36.253Z,91.10
2023-03-27T22:16:12.381Z,91.20
2023-03-27T22:18:39.884Z,91.40
2023-03-27T22:21:17.537Z,91.30
2023-03-27T22:23:44.895Z,91.40
2023-03-27T22:26:12.005Z,91.50
2023-03-27T22:28:38.966Z,91.30
2023-03-27T22:31:06.142Z,91.30
2023-03-27T22:33:33.018Z,91.30
2023-03-27T22:36:00.243Z,91.40
2023-03-27T22:38:32.810Z,91.50
2023-03-27T22:41:00.019Z,91.40
2023-03-27T22:43:29.177Z,91.50
2023-03-27T22:45:56.501Z,91.60
2023-03-27T22:48:23.390Z,91.50
2023-03-27T22:50:56.045Z,91.20
2023-03-27T22:53:24.502Z,91.30
2023-03-27T22:55:56.909Z,91.00
2023-03-27T22:58:25.195Z,91.00
2023-03-27T23:00:53.626Z,91.00
2023-03-27T23:03:21.860Z,92.40
2023-03-27T23:05:50.414Z,93.80
2023-03-27T23:08:19.237Z,95.30
2023-03-27T23:10:46.875Z,97.00
2023-03-27T23:13:13.994Z,97.90
2023-03-27T23:15:40.835Z,98.80
2023-03-27T23:18:07.683Z,99.00
2023-03-27T23:20:34.576Z,99.00
2023-03-27T23:23:01.391Z,99.30
2023-03-27T23:25:28.177Z,99.20
2023-03-27T23:27:55.470Z,99.50
2023-03-27T23:30:22.380Z,99.80
2023-03-27T23:32:49.244Z,99.50
2023-03-27T23:35:16.960Z,99.10
2023-03-27T23:37:43.786Z,99.10
2023-03-27T23:40:10.653Z,99.00
2023-03-27T23:42:37.453Z,98.70
2023-03-27T23:45:04.589Z,98.30
2023-03-27T23:47:32.627Z,98.50
2023-03-27T23:49:59.455Z,98.60
2023-03-27T23:52:26.277Z,98.70
2023-03-27T23:54:53.085Z,99.10
2023-03-27T23:57:20.323Z,99.40
2023-03-27T23:59:47.142Z,99.40
